sensor_id;sensor_type;location;lat;lon;timestamp;temperature;humidity
64396;DHT22;50717;53.360;6.290;2022-10-31T00:01:28;11.30;99.90
64396;DHT22;50717;53.360;6.290;2022-10-31T00:03:54;11.10;99.90
64396;DHT22;50717;53.360;6.290;2022-10-31T00:06:20;11.80;99.90
64396;DHT22;50717;53.360;6.290;2022-10-31T00:08:47;11.70;99.90
64396;DHT22;50717;53.360;6.290;2022-10-31T00:11:13;11.50;99.90
64396;DHT22;50717;53.360;6.290;2022-10-31T00:13:38;11.80;99.90
64396;DHT22;50717;53.360;6.290;2022-10-31T00:16:05;11.60;99.90
64396;DHT22;50717;53.360;6.290;2022-10-31T00:18:31;11.80;99.90
64396;DHT22;50717;53.360;6.290;2022-10-31T00:21:01;11.80;99.90
64396;DHT22;50717;53.360;6.290;2022-10-31T00:23:27;11.50;99.90
64396;DHT22;50717;53.360;6.290;2022-10-31T00:25:52;11.30;99.90
64396;DHT22;50717;53.360;6.290;2022-10-31T00:28:18;11.40;99.90
64396;DHT22;50717;53.360;6.290;2022-10-31T00:30:44;11.60;99.90
64396;DHT22;50717;53.360;6.290;2022-10-31T00:33:09;11.60;99.90
64396;DHT22;50717;53.360;6.290;2022-10-31T00:35:35;11.50;99.90
64396;DHT22;50717;53.360;6.290;2022-10-31T00:38:01;11.50;99.90
64396;DHT22;50717;53.360;6.290;2022-10-31T00:40:26;11.30;99.90
64396;DHT22;50717;53.360;6.290;2022-10-31T00:42:52;11.50;99.90
64396;DHT22;50717;53.360;6.290;2022-10-31T00:45:18;11.90;99.90
64396;DHT22;50717;53.360;6.290;2022-10-31T00:47:43;11.50;99.90
64396;DHT22;50717;53.360;6.290;2022-10-31T00:50:09;11.70;99.90
64396;DHT22;50717;53.360;6.290;2022-10-31T00:52:35;11.50;99.90
64396;DHT22;50717;53.360;6.290;2022-10-31T00:55:00;11.60;99.90
64396;DHT22;50717;53.360;6.290;2022-10-31T00:57:26;11.50;99.90
64396;DHT22;50717;53.360;6.290;2022-10-31T00:59:52;11.40;99.90
64396;DHT22;50717;53.360;6.290;2022-10-31T01:02:17;11.50;99.90
64396;DHT22;50717;53.360;6.290;2022-10-31T01:04:43;11.60;99.90
64396;DHT22;50717;53.360;6.290;2022-10-31T01:07:09;11.50;99.90
64396;DHT22;50717;53.360;6.290;2022-10-31T01:09:36;11.20;99.90
64396;DHT22;50717;53.360;6.290;2022-10-31T01:12:02;11.00;99.90
64396;DHT22;50717;53.360;6.290;2022-10-31T01:14:28;11.00;99.90
64396;DHT22;50717;53.360;6.290;2022-10-31T01:16:53;11.00;99.90
64396;DHT22;50717;53.360;6.290;2022-10-31T01:19:19;11.30;99.90
64396;DHT22;50717;53.360;6.290;2022-10-31T01:21:45;11.30;99.90
64396;DHT22;50717;53.360;6.290;2022-10-31T01:24:10;11.00;99.90
64396;DHT22;50717;53.360;6.290;2022-10-31T01:26:36;11.00;99.90
64396;DHT22;50717;53.360;6.290;2022-10-31T01:29:07;10.80;99.90
64396;DHT22;50717;53.360;6.290;2022-10-31T01:31:38;10.90;99.90
64396;DHT22;50717;53.360;6.290;2022-10-31T01:34:05;10.60;99.90
64396;DHT22;50717;53.360;6.290;2022-10-31T01:36:34;10.70;99.90
64396;DHT22;50717;53.360;6.290;2022-10-31T01:39:03;11.10;99.90
64396;DHT22;50717;53.360;6.290;2022-10-31T01:41:32;10.80;99.90
64396;DHT22;50717;53.360;6.290;2022-10-31T01:46:55;11.20;99.90
64396;DHT22;50717;53.360;6.290;2022-10-31T01:49:35;11.20;99.90
64396;DHT22;50717;53.360;6.290;2022-10-31T01:52:09;11.00;99.90
64396;DHT22;50717;53.360;6.290;2022-10-31T01:54:41;10.70;99.90
64396;DHT22;50717;53.360;6.290;2022-10-31T01:57:11;11.00;99.90
64396;DHT22;50717;53.360;6.290;2022-10-31T01:59:42;11.20;99.90
64396;DHT22;50717;53.360;6.290;2022-10-31T02:02:09;10.90;99.90
64396;DHT22;50717;53.360;6.290;2022-10-31T02:04:35;11.30;99.90
64396;DHT22;50717;53.360;6.290;2022-10-31T02:07:14;10.70;99.90
64396;DHT22;50717;53.360;6.290;2022-10-31T02:09:42;11.20;99.90
64396;DHT22;50717;53.360;6.290;2022-10-31T02:12:10;10.90;99.90
64396;DHT22;50717;53.360;6.290;2022-10-31T02:14:36;11.00;99.90
64396;DHT22;50717;53.360;6.290;2022-10-31T02:17:03;10.80;99.90
64396;DHT22;50717;53.360;6.290;2022-10-31T02:22:29;10.90;99.90
64396;DHT22;50717;53.360;6.290;2022-10-31T02:27:56;10.80;99.90
64396;DHT22;50717;53.360;6.290;2022-10-31T02:30:25;11.00;99.90
64396;DHT22;50717;53.360;6.290;2022-10-31T02:35:31;10.70;99.90
64396;DHT22;50717;53.360;6.290;2022-10-31T02:40:37;10.80;99.90
64396;DHT22;50717;53.360;6.290;2022-10-31T02:44:07;10.90;99.90
64396;DHT22;50717;53.360;6.290;2022-10-31T02:46:39;10.80;99.90
64396;DHT22;50717;53.360;6.290;2022-10-31T02:52:24;10.80;99.90
64396;DHT22;50717;53.360;6.290;2022-10-31T02:54:50;10.80;99.90
64396;DHT22;50717;53.360;6.290;2022-10-31T02:59:54;10.40;99.90
64396;DHT22;50717;53.360;6.290;2022-10-31T03:08:11;10.50;99.90
64396;DHT22;50717;53.360;6.290;2022-10-31T03:10:57;10.40;99.90
64396;DHT22;50717;53.360;6.290;2022-10-31T03:18:59;10.30;99.90
64396;DHT22;50717;53.360;6.290;2022-10-31T03:21:30;11.20;99.90
64396;DHT22;50717;53.360;6.290;2022-10-31T03:24:00;10.00;99.90
64396;DHT22;50717;53.360;6.290;2022-10-31T03:26:26;10.20;99.90
64396;DHT22;50717;53.360;6.290;2022-10-31T03:29:00;10.20;99.90
64396;DHT22;50717;53.360;6.290;2022-10-31T03:31:32;10.30;99.90
64396;DHT22;50717;53.360;6.290;2022-10-31T03:34:01;10.10;99.90
64396;DHT22;50717;53.360;6.290;2022-10-31T03:36:30;9.90;99.90
64396;DHT22;50717;53.360;6.290;2022-10-31T03:39:00;9.70;99.90
64396;DHT22;50717;53.360;6.290;2022-10-31T03:41:29;9.80;99.90
64396;DHT22;50717;53.360;6.290;2022-10-31T03:44:01;10.20;99.90
64396;DHT22;50717;53.360;6.290;2022-10-31T03:46:29;10.10;99.90
64396;DHT22;50717;53.360;6.290;2022-10-31T03:48:55;10.60;99.90
64396;DHT22;50717;53.360;6.290;2022-10-31T03:56:41;9.70;99.90
64396;DHT22;50717;53.360;6.290;2022-10-31T03:59:26;10.10;99.90
64396;DHT22;50717;53.360;6.290;2022-10-31T04:01:57;10.40;99.90
64396;DHT22;50717;53.360;6.290;2022-10-31T04:04:26;10.00;99.90
64396;DHT22;50717;53.360;6.290;2022-10-31T04:06:52;9.70;99.90
64396;DHT22;50717;53.360;6.290;2022-10-31T04:09:20;9.70;99.90
64396;DHT22;50717;53.360;6.290;2022-10-31T04:11:55;10.40;99.90
64396;DHT22;50717;53.360;6.290;2022-10-31T04:14:24;10.20;99.90
64396;DHT22;50717;53.360;6.290;2022-10-31T04:16:50;11.00;99.90
64396;DHT22;50717;53.360;6.290;2022-10-31T04:19:17;10.00;99.90
64396;DHT22;50717;53.360;6.290;2022-10-31T04:21:42;10.00;99.90
64396;DHT22;50717;53.360;6.290;2022-10-31T04:24:09;10.40;99.90
64396;DHT22;50717;53.360;6.290;2022-10-31T04:26:34;9.90;99.90
64396;DHT22;50717;53.360;6.290;2022-10-31T04:29:00;10.30;99.90
64396;DHT22;50717;53.360;6.290;2022-10-31T04:31:26;9.60;99.90
64396;DHT22;50717;53.360;6.290;2022-10-31T04:33:51;10.30;99.90
64396;DHT22;50717;53.360;6.290;2022-10-31T04:36:17;10.10;99.90
64396;DHT22;50717;53.360;6.290;2022-10-31T04:38:43;9.90;99.90
64396;DHT22;50717;53.360;6.290;2022-10-31T04:41:09;10.20;99.90
64396;DHT22;50717;53.360;6.290;2022-10-31T04:43:34;9.60;99.90
64396;DHT22;50717;53.360;6.290;2022-10-31T04:46:00;10.20;99.90
64396;DHT22;50717;53.360;6.290;2022-10-31T04:48:26;10.20;99.90
64396;DHT22;50717;53.360;6.290;2022-10-31T04:50:51;9.90;99.90
64396;DHT22;50717;53.360;6.290;2022-10-31T04:53:17;9.80;99.90
64396;DHT22;50717;53.360;6.290;2022-10-31T04:55:42;9.90;99.90
64396;DHT22;50717;53.360;6.290;2022-10-31T04:58:08;9.90;99.90
64396;DHT22;50717;53.360;6.290;2022-10-31T05:00:34;9.90;99.90
64396;DHT22;50717;53.360;6.290;2022-10-31T05:02:59;9.60;99.90
64396;DHT22;50717;53.360;6.290;2022-10-31T05:05:27;9.90;99.90
64396;DHT22;50717;53.360;6.290;2022-10-31T05:07:54;9.90;99.90
64396;DHT22;50717;53.360;6.290;2022-10-31T05:10:22;9.50;99.90
64396;DHT22;50717;53.360;6.290;2022-10-31T05:12:53;10.20;99.90
64396;DHT22;50717;53.360;6.290;2022-10-31T05:15:20;9.60;99.90
64396;DHT22;50717;53.360;6.290;2022-10-31T05:17:46;10.00;99.90
64396;DHT22;50717;53.360;6.290;2022-10-31T05:20:13;10.80;99.90
64396;DHT22;50717;53.360;6.290;2022-10-31T05:22:47;10.00;99.90
64396;DHT22;50717;53.360;6.290;2022-10-31T05:25:13;9.70;99.90
64396;DHT22;50717;53.360;6.290;2022-10-31T05:27:40;10.00;99.90
64396;DHT22;50717;53.360;6.290;2022-10-31T05:30:07;9.90;99.90
64396;DHT22;50717;53.360;6.290;2022-10-31T05:32:41;9.50;99.90
64396;DHT22;50717;53.360;6.290;2022-10-31T05:35:08;9.20;99.90
64396;DHT22;50717;53.360;6.290;2022-10-31T05:37:36;9.50;99.90
64396;DHT22;50717;53.360;6.290;2022-10-31T05:40:03;9.70;99.90
64396;DHT22;50717;53.360;6.290;2022-10-31T05:42:29;10.20;99.90
64396;DHT22;50717;53.360;6.290;2022-10-31T05:44:55;9.60;99.90
64396;DHT22;50717;53.360;6.290;2022-10-31T05:47:20;10.00;99.90
64396;DHT22;50717;53.360;6.290;2022-10-31T05:49:46;9.30;99.90
64396;DHT22;50717;53.360;6.290;2022-10-31T05:52:12;9.70;99.90
64396;DHT22;50717;53.360;6.290;2022-10-31T05:54:37;9.90;99.90
64396;DHT22;50717;53.360;6.290;2022-10-31T05:57:03;9.40;99.90
64396;DHT22;50717;53.360;6.290;2022-10-31T05:59:28;9.30;99.90
64396;DHT22;50717;53.360;6.290;2022-10-31T06:01:54;9.60;99.90
64396;DHT22;50717;53.360;6.290;2022-10-31T06:04:20;9.90;99.90
64396;DHT22;50717;53.360;6.290;2022-10-31T06:06:45;9.60;99.90
64396;DHT22;50717;53.360;6.290;2022-10-31T06:09:11;9.10;99.90
64396;DHT22;50717;53.360;6.290;2022-10-31T06:11:37;9.40;99.90
64396;DHT22;50717;53.360;6.290;2022-10-31T06:14:03;10.00;99.90
64396;DHT22;50717;53.360;6.290;2022-10-31T06:16:28;9.90;99.90
64396;DHT22;50717;53.360;6.290;2022-10-31T06:18:54;9.70;99.90
64396;DHT22;50717;53.360;6.290;2022-10-31T06:21:20;9.80;99.90
64396;DHT22;50717;53.360;6.290;2022-10-31T06:23:45;9.80;99.90
64396;DHT22;50717;53.360;6.290;2022-10-31T06:26:11;11.20;99.90
64396;DHT22;50717;53.360;6.290;2022-10-31T06:28:37;9.70;99.90
64396;DHT22;50717;53.360;6.290;2022-10-31T06:31:02;9.80;99.90
64396;DHT22;50717;53.360;6.290;2022-10-31T06:33:28;9.80;99.90
64396;DHT22;50717;53.360;6.290;2022-10-31T06:35:54;9.70;99.90
64396;DHT22;50717;53.360;6.290;2022-10-31T06:38:19;10.00;99.90
64396;DHT22;50717;53.360;6.290;2022-10-31T06:40:45;9.60;99.90
64396;DHT22;50717;53.360;6.290;2022-10-31T06:43:11;9.50;99.90
64396;DHT22;50717;53.360;6.290;2022-10-31T06:45:37;9.90;99.90
64396;DHT22;50717;53.360;6.290;2022-10-31T06:48:03;9.30;99.90
64396;DHT22;50717;53.360;6.290;2022-10-31T06:50:29;9.30;99.90
64396;DHT22;50717;53.360;6.290;2022-10-31T06:52:56;9.70;99.90
64396;DHT22;50717;53.360;6.290;2022-10-31T06:55:23;10.00;99.90
64396;DHT22;50717;53.360;6.290;2022-10-31T07:04:27;9.50;99.90
64396;DHT22;50717;53.360;6.290;2022-10-31T07:06:52;10.10;99.90
64396;DHT22;50717;53.360;6.290;2022-10-31T07:09:18;10.10;99.90
64396;DHT22;50717;53.360;6.290;2022-10-31T07:11:44;9.60;99.90
64396;DHT22;50717;53.360;6.290;2022-10-31T07:14:10;9.90;99.90
64396;DHT22;50717;53.360;6.290;2022-10-31T07:16:35;9.60;99.90
64396;DHT22;50717;53.360;6.290;2022-10-31T07:19:01;9.40;99.90
64396;DHT22;50717;53.360;6.290;2022-10-31T07:21:27;10.20;99.90
64396;DHT22;50717;53.360;6.290;2022-10-31T07:23:52;9.70;99.90
64396;DHT22;50717;53.360;6.290;2022-10-31T07:26:18;9.90;99.90
64396;DHT22;50717;53.360;6.290;2022-10-31T07:28:45;9.30;99.90
64396;DHT22;50717;53.360;6.290;2022-10-31T07:31:12;10.10;99.90
64396;DHT22;50717;53.360;6.290;2022-10-31T07:33:38;10.10;99.90
64396;DHT22;50717;53.360;6.290;2022-10-31T07:36:03;10.00;99.90
64396;DHT22;50717;53.360;6.290;2022-10-31T07:38:29;10.20;99.90
64396;DHT22;50717;53.360;6.290;2022-10-31T07:40:55;10.60;99.90
64396;DHT22;50717;53.360;6.290;2022-10-31T07:43:21;10.20;99.90
64396;DHT22;50717;53.360;6.290;2022-10-31T07:45:51;9.90;99.90
64396;DHT22;50717;53.360;6.290;2022-10-31T07:48:17;10.20;99.90
64396;DHT22;50717;53.360;6.290;2022-10-31T07:50:43;10.50;99.90
64396;DHT22;50717;53.360;6.290;2022-10-31T07:53:10;10.10;99.90
64396;DHT22;50717;53.360;6.290;2022-10-31T07:55:37;11.20;99.90
64396;DHT22;50717;53.360;6.290;2022-10-31T07:58:05;10.80;99.90
64396;DHT22;50717;53.360;6.290;2022-10-31T08:00:33;10.50;99.90
64396;DHT22;50717;53.360;6.290;2022-10-31T08:03:07;10.10;99.90
64396;DHT22;50717;53.360;6.290;2022-10-31T08:05:34;10.30;99.90
64396;DHT22;50717;53.360;6.290;2022-10-31T08:08:00;10.20;99.90
64396;DHT22;50717;53.360;6.290;2022-10-31T08:10:27;10.30;99.90
64396;DHT22;50717;53.360;6.290;2022-10-31T08:13:01;10.10;99.90
64396;DHT22;50717;53.360;6.290;2022-10-31T08:15:27;10.40;99.90
64396;DHT22;50717;53.360;6.290;2022-10-31T08:17:53;10.80;99.90
64396;DHT22;50717;53.360;6.290;2022-10-31T08:20:19;10.10;99.90
64396;DHT22;50717;53.360;6.290;2022-10-31T08:23:02;10.40;99.90
64396;DHT22;50717;53.360;6.290;2022-10-31T08:25:30;10.90;99.90
64396;DHT22;50717;53.360;6.290;2022-10-31T08:27:56;10.50;99.90
64396;DHT22;50717;53.360;6.290;2022-10-31T08:30:24;11.00;99.90
64396;DHT22;50717;53.360;6.290;2022-10-31T08:33:02;10.80;99.90
64396;DHT22;50717;53.360;6.290;2022-10-31T08:35:28;11.00;99.90
64396;DHT22;50717;53.360;6.290;2022-10-31T08:37:56;11.30;99.90
64396;DHT22;50717;53.360;6.290;2022-10-31T08:40:23;11.00;99.90
64396;DHT22;50717;53.360;6.290;2022-10-31T08:43:06;11.40;99.90
64396;DHT22;50717;53.360;6.290;2022-10-31T08:45:34;11.40;99.90
64396;DHT22;50717;53.360;6.290;2022-10-31T08:48:02;11.40;99.90
64396;DHT22;50717;53.360;6.290;2022-10-31T08:50:30;11.50;99.90
64396;DHT22;50717;53.360;6.290;2022-10-31T08:53:04;11.60;99.90
64396;DHT22;50717;53.360;6.290;2022-10-31T08:55:30;11.70;99.90
64396;DHT22;50717;53.360;6.290;2022-10-31T08:57:56;11.60;99.90
64396;DHT22;50717;53.360;6.290;2022-10-31T09:00:23;12.40;99.90
64396;DHT22;50717;53.360;6.290;2022-10-31T09:02:54;12.10;99.90
64396;DHT22;50717;53.360;6.290;2022-10-31T09:05:19;12.20;99.90
64396;DHT22;50717;53.360;6.290;2022-10-31T09:07:45;12.20;99.90
64396;DHT22;50717;53.360;6.290;2022-10-31T09:10:11;12.50;99.90
64396;DHT22;50717;53.360;6.290;2022-10-31T09:12:36;12.60;99.90
64396;DHT22;50717;53.360;6.290;2022-10-31T09:15:02;12.10;99.90
64396;DHT22;50717;53.360;6.290;2022-10-31T09:17:28;12.30;99.90
64396;DHT22;50717;53.360;6.290;2022-10-31T09:19:54;12.50;99.90
64396;DHT22;50717;53.360;6.290;2022-10-31T09:22:20;12.40;99.90
64396;DHT22;50717;53.360;6.290;2022-10-31T09:24:45;12.80;99.90
64396;DHT22;50717;53.360;6.290;2022-10-31T09:27:11;13.90;99.90
64396;DHT22;50717;53.360;6.290;2022-10-31T09:29:37;14.10;99.90
64396;DHT22;50717;53.360;6.290;2022-10-31T09:32:02;13.10;99.90
64396;DHT22;50717;53.360;6.290;2022-10-31T09:34:28;12.50;99.90
64396;DHT22;50717;53.360;6.290;2022-10-31T09:36:54;13.60;99.90
64396;DHT22;50717;53.360;6.290;2022-10-31T09:39:19;13.10;99.90
64396;DHT22;50717;53.360;6.290;2022-10-31T09:42:08;13.80;99.90
64396;DHT22;50717;53.360;6.290;2022-10-31T09:44:45;13.50;99.90
64396;DHT22;50717;53.360;6.290;2022-10-31T09:47:27;13.60;99.90
64396;DHT22;50717;53.360;6.290;2022-10-31T09:52:41;14.00;99.90
64396;DHT22;50717;53.360;6.290;2022-10-31T09:57:41;14.20;99.90
64396;DHT22;50717;53.360;6.290;2022-10-31T10:00:18;14.20;99.90
64396;DHT22;50717;53.360;6.290;2022-10-31T10:02:57;13.60;99.90
64396;DHT22;50717;53.360;6.290;2022-10-31T10:05:34;13.90;99.90
64396;DHT22;50717;53.360;6.290;2022-10-31T10:08:21;14.40;99.90
64396;DHT22;50717;53.360;6.290;2022-10-31T10:10:51;14.40;99.90
64396;DHT22;50717;53.360;6.290;2022-10-31T10:16:03;14.30;99.90
64396;DHT22;50717;53.360;6.290;2022-10-31T10:18:52;14.40;99.90
64396;DHT22;50717;53.360;6.290;2022-10-31T10:27:18;14.40;99.90
64396;DHT22;50717;53.360;6.290;2022-10-31T10:29:49;14.40;99.90
64396;DHT22;50717;53.360;6.290;2022-10-31T10:32:27;14.80;99.90
64396;DHT22;50717;53.360;6.290;2022-10-31T10:35:01;15.00;99.90
64396;DHT22;50717;53.360;6.290;2022-10-31T10:37:34;14.80;99.90
64396;DHT22;50717;53.360;6.290;2022-10-31T10:40:11;14.90;99.90
64396;DHT22;50717;53.360;6.290;2022-10-31T10:42:39;15.10;99.90
64396;DHT22;50717;53.360;6.290;2022-10-31T10:45:24;15.30;99.90
64396;DHT22;50717;53.360;6.290;2022-10-31T10:48:14;15.10;99.90
64396;DHT22;50717;53.360;6.290;2022-10-31T10:50:46;15.00;99.90
64396;DHT22;50717;53.360;6.290;2022-10-31T10:59:19;15.50;99.90
64396;DHT22;50717;53.360;6.290;2022-10-31T11:01:48;15.10;99.90
64396;DHT22;50717;53.360;6.290;2022-10-31T11:04:26;15.20;99.90
64396;DHT22;50717;53.360;6.290;2022-10-31T11:07:07;15.20;99.90
64396;DHT22;50717;53.360;6.290;2022-10-31T11:09:34;15.20;99.90
64396;DHT22;50717;53.360;6.290;2022-10-31T11:12:24;15.50;99.90
64396;DHT22;50717;53.360;6.290;2022-10-31T11:15:24;15.30;99.90
64396;DHT22;50717;53.360;6.290;2022-10-31T11:17:52;15.50;99.90
64396;DHT22;50717;53.360;6.290;2022-10-31T11:22:46;15.40;99.90
64396;DHT22;50717;53.360;6.290;2022-10-31T11:25:25;15.40;99.90
64396;DHT22;50717;53.360;6.290;2022-10-31T11:28:02;15.80;99.90
64396;DHT22;50717;53.360;6.290;2022-10-31T11:30:28;15.60;99.90
64396;DHT22;50717;53.360;6.290;2022-10-31T11:32:55;15.70;99.90
64396;DHT22;50717;53.360;6.290;2022-10-31T11:35:23;15.60;99.90
64396;DHT22;50717;53.360;6.290;2022-10-31T11:37:51;15.90;99.90
64396;DHT22;50717;53.360;6.290;2022-10-31T11:40:21;15.70;99.90
64396;DHT22;50717;53.360;6.290;2022-10-31T11:42:48;15.90;99.90
64396;DHT22;50717;53.360;6.290;2022-10-31T11:47:51;15.70;99.90
64396;DHT22;50717;53.360;6.290;2022-10-31T11:50:28;15.60;99.90
64396;DHT22;50717;53.360;6.290;2022-10-31T11:52:54;15.90;99.90
64396;DHT22;50717;53.360;6.290;2022-10-31T11:55:37;15.70;99.90
64396;DHT22;50717;53.360;6.290;2022-10-31T11:58:04;15.80;99.90
64396;DHT22;50717;53.360;6.290;2022-10-31T12:00:37;15.80;99.90
64396;DHT22;50717;53.360;6.290;2022-10-31T12:06:18;15.40;99.90
64396;DHT22;50717;53.360;6.290;2022-10-31T12:08:46;15.20;99.90
64396;DHT22;50717;53.360;6.290;2022-10-31T12:16:46;14.90;99.90
64396;DHT22;50717;53.360;6.290;2022-10-31T12:31:08;15.00;99.90
64396;DHT22;50717;53.360;6.290;2022-10-31T12:33:31;15.50;99.90
64396;DHT22;50717;53.360;6.290;2022-10-31T12:38:48;15.70;99.90
64396;DHT22;50717;53.360;6.290;2022-10-31T12:54:54;16.00;99.90
64396;DHT22;50717;53.360;6.290;2022-10-31T12:57:35;16.30;99.90
64396;DHT22;50717;53.360;6.290;2022-10-31T13:02:50;16.00;99.90
64396;DHT22;50717;53.360;6.290;2022-10-31T13:13:12;16.00;99.90
64396;DHT22;50717;53.360;6.290;2022-10-31T13:15:51;16.10;99.90
64396;DHT22;50717;53.360;6.290;2022-10-31T13:18:27;16.40;99.90
64396;DHT22;50717;53.360;6.290;2022-10-31T13:20:53;17.10;99.90
64396;DHT22;50717;53.360;6.290;2022-10-31T13:23:33;17.60;99.90
64396;DHT22;50717;53.360;6.290;2022-10-31T13:26:06;17.30;99.90
64396;DHT22;50717;53.360;6.290;2022-10-31T13:28:48;17.10;99.90
64396;DHT22;50717;53.360;6.290;2022-10-31T13:31:15;17.40;99.90
64396;DHT22;50717;53.360;6.290;2022-10-31T13:33:55;16.70;99.90
64396;DHT22;50717;53.360;6.290;2022-10-31T13:36:37;16.70;99.90
64396;DHT22;50717;53.360;6.290;2022-10-31T13:42:25;16.50;99.90
64396;DHT22;50717;53.360;6.290;2022-10-31T13:44:55;16.50;99.90
64396;DHT22;50717;53.360;6.290;2022-10-31T13:47:26;16.40;99.90
64396;DHT22;50717;53.360;6.290;2022-10-31T13:50:04;16.40;99.90
64396;DHT22;50717;53.360;6.290;2022-10-31T13:52:30;16.30;99.90
64396;DHT22;50717;53.360;6.290;2022-10-31T13:54:56;16.00;99.90
64396;DHT22;50717;53.360;6.290;2022-10-31T13:57:33;16.00;99.90
64396;DHT22;50717;53.360;6.290;2022-10-31T14:02:48;16.20;99.90
64396;DHT22;50717;53.360;6.290;2022-10-31T14:05:27;15.80;99.90
64396;DHT22;50717;53.360;6.290;2022-10-31T14:07:55;15.80;99.90
64396;DHT22;50717;53.360;6.290;2022-10-31T14:10:37;15.80;99.90
64396;DHT22;50717;53.360;6.290;2022-10-31T14:13:29;15.50;99.90
64396;DHT22;50717;53.360;6.290;2022-10-31T14:15:59;15.60;99.90
64396;DHT22;50717;53.360;6.290;2022-10-31T14:23:49;15.40;99.90
64396;DHT22;50717;53.360;6.290;2022-10-31T14:29:39;15.40;99.90
64396;DHT22;50717;53.360;6.290;2022-10-31T14:34:40;15.50;99.90
64396;DHT22;50717;53.360;6.290;2022-10-31T14:42:41;15.50;99.90
64396;DHT22;50717;53.360;6.290;2022-10-31T14:50:53;15.20;99.90
64396;DHT22;50717;53.360;6.290;2022-10-31T14:55:53;15.20;99.90
64396;DHT22;50717;53.360;6.290;2022-10-31T14:58:46;15.30;99.90
64396;DHT22;50717;53.360;6.290;2022-10-31T15:01:28;15.20;99.90
64396;DHT22;50717;53.360;6.290;2022-10-31T15:04:00;15.40;99.90
64396;DHT22;50717;53.360;6.290;2022-10-31T15:06:35;15.00;99.90
64396;DHT22;50717;53.360;6.290;2022-10-31T15:09:03;14.90;99.90
64396;DHT22;50717;53.360;6.290;2022-10-31T15:11:29;14.80;99.90
64396;DHT22;50717;53.360;6.290;2022-10-31T15:14:05;14.80;99.90
64396;DHT22;50717;53.360;6.290;2022-10-31T15:16:43;14.90;99.90
64396;DHT22;50717;53.360;6.290;2022-10-31T15:19:13;14.60;99.90
64396;DHT22;50717;53.360;6.290;2022-10-31T15:21:44;15.00;99.90
64396;DHT22;50717;53.360;6.290;2022-10-31T15:24:14;14.60;99.90
64396;DHT22;50717;53.360;6.290;2022-10-31T15:26:45;14.50;99.90
64396;DHT22;50717;53.360;6.290;2022-10-31T15:29:13;14.80;99.90
64396;DHT22;50717;53.360;6.290;2022-10-31T15:31:56;15.40;99.90
64396;DHT22;50717;53.360;6.290;2022-10-31T15:34:39;14.40;99.90
64396;DHT22;50717;53.360;6.290;2022-10-31T15:37:16;14.20;99.90
64396;DHT22;50717;53.360;6.290;2022-10-31T15:39:43;14.30;99.90
64396;DHT22;50717;53.360;6.290;2022-10-31T15:42:30;14.60;99.90
64396;DHT22;50717;53.360;6.290;2022-10-31T15:47:39;14.10;99.90
64396;DHT22;50717;53.360;6.290;2022-10-31T15:50:22;14.20;99.90
64396;DHT22;50717;53.360;6.290;2022-10-31T15:52:50;14.20;99.90
64396;DHT22;50717;53.360;6.290;2022-10-31T15:55:20;14.60;99.90
64396;DHT22;50717;53.360;6.290;2022-10-31T15:57:51;14.20;99.90
64396;DHT22;50717;53.360;6.290;2022-10-31T16:00:36;14.50;99.90
64396;DHT22;50717;53.360;6.290;2022-10-31T16:05:54;13.90;99.90
64396;DHT22;50717;53.360;6.290;2022-10-31T16:13:30;14.40;99.90
64396;DHT22;50717;53.360;6.290;2022-10-31T16:16:14;14.30;99.90
64396;DHT22;50717;53.360;6.290;2022-10-31T16:18:41;14.20;99.90
64396;DHT22;50717;53.360;6.290;2022-10-31T16:21:08;14.20;99.90
64396;DHT22;50717;53.360;6.290;2022-10-31T16:29:41;14.00;99.90
64396;DHT22;50717;53.360;6.290;2022-10-31T16:35:33;13.70;99.90
64396;DHT22;50717;53.360;6.290;2022-10-31T16:37:59;13.90;99.90
64396;DHT22;50717;53.360;6.290;2022-10-31T16:40:25;14.00;99.90
64396;DHT22;50717;53.360;6.290;2022-10-31T16:42:51;14.00;99.90
64396;DHT22;50717;53.360;6.290;2022-10-31T16:45:22;14.10;99.90
64396;DHT22;50717;53.360;6.290;2022-10-31T16:47:48;13.90;99.90
64396;DHT22;50717;53.360;6.290;2022-10-31T16:50:21;13.90;99.90
64396;DHT22;50717;53.360;6.290;2022-10-31T16:52:47;13.80;99.90
64396;DHT22;50717;53.360;6.290;2022-10-31T16:55:17;13.80;99.90
64396;DHT22;50717;53.360;6.290;2022-10-31T16:57:47;13.90;99.90
64396;DHT22;50717;53.360;6.290;2022-10-31T17:00:16;13.80;99.90
64396;DHT22;50717;53.360;6.290;2022-10-31T17:02:42;13.60;99.90
64396;DHT22;50717;53.360;6.290;2022-10-31T17:05:13;14.30;99.90
64396;DHT22;50717;53.360;6.290;2022-10-31T17:07:40;13.70;99.90
64396;DHT22;50717;53.360;6.290;2022-10-31T17:10:07;13.90;99.90
64396;DHT22;50717;53.360;6.290;2022-10-31T17:12:33;13.80;99.90
64396;DHT22;50717;53.360;6.290;2022-10-31T17:15:00;13.70;99.90
64396;DHT22;50717;53.360;6.290;2022-10-31T17:17:25;13.90;99.90
64396;DHT22;50717;53.360;6.290;2022-10-31T17:19:51;13.80;99.90
64396;DHT22;50717;53.360;6.290;2022-10-31T17:22:17;13.50;99.90
64396;DHT22;50717;53.360;6.290;2022-10-31T17:24:42;13.70;99.90
64396;DHT22;50717;53.360;6.290;2022-10-31T17:27:08;13.50;99.90
64396;DHT22;50717;53.360;6.290;2022-10-31T17:29:34;13.60;99.90
64396;DHT22;50717;53.360;6.290;2022-10-31T17:31:59;13.80;99.90
64396;DHT22;50717;53.360;6.290;2022-10-31T17:34:27;13.80;99.90
64396;DHT22;50717;53.360;6.290;2022-10-31T17:36:53;13.90;99.90
64396;DHT22;50717;53.360;6.290;2022-10-31T17:39:18;13.70;99.90
64396;DHT22;50717;53.360;6.290;2022-10-31T17:41:44;13.80;99.90
64396;DHT22;50717;53.360;6.290;2022-10-31T17:44:10;13.80;99.90
64396;DHT22;50717;53.360;6.290;2022-10-31T17:46:36;13.60;99.90
64396;DHT22;50717;53.360;6.290;2022-10-31T17:49:03;13.60;99.90
64396;DHT22;50717;53.360;6.290;2022-10-31T17:51:34;13.80;99.90
64396;DHT22;50717;53.360;6.290;2022-10-31T17:53:59;13.70;99.90
64396;DHT22;50717;53.360;6.290;2022-10-31T17:56:25;13.60;99.90
64396;DHT22;50717;53.360;6.290;2022-10-31T17:58:51;13.80;99.90
64396;DHT22;50717;53.360;6.290;2022-10-31T18:01:17;13.80;99.90
64396;DHT22;50717;53.360;6.290;2022-10-31T18:03:43;13.70;99.90
64396;DHT22;50717;53.360;6.290;2022-10-31T18:06:10;13.90;99.90
64396;DHT22;50717;53.360;6.290;2022-10-31T18:08:38;13.50;99.90
64396;DHT22;50717;53.360;6.290;2022-10-31T18:11:06;13.60;99.90
64396;DHT22;50717;53.360;6.290;2022-10-31T18:13:34;14.10;99.90
64396;DHT22;50717;53.360;6.290;2022-10-31T18:16:00;13.60;99.90
64396;DHT22;50717;53.360;6.290;2022-10-31T18:18:25;13.60;99.90
64396;DHT22;50717;53.360;6.290;2022-10-31T18:20:51;13.70;99.90
64396;DHT22;50717;53.360;6.290;2022-10-31T18:23:16;13.60;99.90
64396;DHT22;50717;53.360;6.290;2022-10-31T18:25:42;13.80;99.90
64396;DHT22;50717;53.360;6.290;2022-10-31T18:28:08;13.70;99.90
64396;DHT22;50717;53.360;6.290;2022-10-31T18:30:38;13.70;99.90
64396;DHT22;50717;53.360;6.290;2022-10-31T18:33:04;13.70;99.90